createdAt,value
2022-12-27T00:02:21.616Z,2.67
2022-12-27T00:04:48.455Z,1.40
2022-12-27T00:07:15.060Z,1.30
2022-12-27T00:09:42.140Z,1.23
2022-12-27T00:12:09.029Z,1.05
2022-12-27T00:14:35.650Z,1.10
2022-12-27T00:17:02.352Z,1.10
2022-12-27T00:19:29.043Z,1.15
2022-12-27T00:21:55.753Z,0.95
2022-12-27T00:24:22.553Z,1.13
2022-12-27T00:26:49.345Z,1.08
2022-12-27T00:29:16.024Z,1.30
2022-12-27T00:31:42.764Z,0.90
2022-12-27T00:34:10.372Z,1.15
2022-12-27T00:36:37.265Z,1.20
2022-12-27T00:39:04.147Z,7.20
2022-12-27T00:41:31.342Z,3.25
2022-12-27T00:43:58.012Z,4.13
2022-12-27T00:46:24.752Z,2.17
2022-12-27T00:48:51.480Z,1.33
2022-12-27T00:51:20.963Z,2.20
2022-12-27T00:53:48.002Z,1.00
2022-12-27T00:56:18.677Z,1.50
2022-12-27T00:58:45.339Z,1.73
2022-12-27T01:01:15.023Z,0.93
2022-12-27T01:03:42.083Z,1.17
2022-12-27T01:06:11.853Z,1.13
2022-12-27T01:08:38.772Z,0.90
2022-12-27T01:11:06.573Z,1.48
2022-12-27T01:13:34.258Z,1.52
2022-12-27T01:16:01.426Z,0.93
2022-12-27T01:18:28.978Z,1.00
2022-12-27T01:20:55.659Z,1.10
2022-12-27T01:23:22.374Z,1.20
2022-12-27T01:25:49.015Z,1.05
2022-12-27T01:28:15.633Z,1.90
2022-12-27T01:30:42.339Z,1.02
2022-12-27T01:33:09.021Z,1.20
2022-12-27T01:35:35.696Z,1.02
2022-12-27T01:38:02.337Z,1.02
2022-12-27T01:40:29.081Z,2.33
2022-12-27T01:42:56.760Z,1.23
2022-12-27T01:45:28.925Z,0.95
2022-12-27T01:48:17.308Z,1.02
2022-12-27T01:50:47.385Z,0.95
2022-12-27T01:53:24.454Z,0.93
2022-12-27T01:56:00.198Z,0.95
2022-12-27T01:58:35.425Z,1.50
2022-12-27T02:01:04.587Z,1.63
2022-12-27T02:03:37.518Z,2.33
2022-12-27T02:06:06.473Z,1.33
2022-12-27T02:08:56.612Z,1.63
2022-12-27T02:11:46.060Z,1.70
2022-12-27T02:14:13.820Z,1.33
2022-12-27T02:16:40.630Z,1.65
2022-12-27T02:19:23.433Z,1.67
2022-12-27T02:22:13.176Z,1.23
2022-12-27T02:24:49.920Z,1.77
2022-12-27T02:27:26.513Z,1.90
2022-12-27T02:30:04.493Z,3.13
2022-12-27T02:32:40.345Z,1.85
2022-12-27T02:35:27.549Z,1.77
2022-12-27T02:38:19.659Z,1.75
2022-12-27T02:41:05.284Z,1.77
2022-12-27T02:43:51.840Z,3.03
2022-12-27T02:46:42.189Z,1.92
2022-12-27T02:49:50.929Z,1.52
2022-12-27T02:53:09.803Z,1.70
2022-12-27T02:56:20.253Z,2.22
2022-12-27T02:59:17.878Z,1.50
2022-12-27T03:02:03.164Z,1.60
2022-12-27T03:04:54.639Z,2.13
2022-12-27T03:07:27.169Z,1.60
2022-12-27T03:10:49.795Z,1.50
2022-12-27T03:13:49.954Z,1.75
2022-12-27T03:16:24.914Z,1.38
2022-12-27T03:19:03.443Z,1.92
2022-12-27T03:21:50.348Z,1.40
2022-12-27T03:24:39.596Z,1.52
2022-12-27T03:27:18.250Z,1.20
2022-12-27T03:30:11.991Z,1.83
2022-12-27T03:33:09.134Z,1.67
2022-12-27T03:35:41.967Z,2.40
2022-12-27T03:38:12.709Z,1.52
2022-12-27T03:41:10.722Z,1.70
2022-12-27T03:43:40.586Z,1.15
2022-12-27T03:46:34.846Z,1.52
2022-12-27T03:49:29.197Z,1.75
2022-12-27T03:52:16.845Z,3.95
2022-12-27T03:54:46.800Z,1.23
2022-12-27T03:57:20.231Z,1.27
2022-12-27T03:59:47.382Z,2.05
2022-12-27T04:02:14.711Z,1.38
2022-12-27T04:04:41.945Z,1.50
2022-12-27T04:07:09.035Z,1.40
2022-12-27T04:09:54.271Z,1.52
2022-12-27T04:12:39.605Z,1.75
2022-12-27T04:15:24.931Z,1.45
2022-12-27T04:18:10.237Z,1.70
2022-12-27T04:20:55.784Z,1.80
2022-12-27T04:23:41.096Z,1.63
2022-12-27T04:26:26.643Z,2.00
2022-12-27T04:29:12.236Z,1.35
2022-12-27T04:31:57.502Z,1.55
2022-12-27T04:34:43.145Z,1.27
2022-12-27T04:37:15.978Z,1.25
2022-12-27T04:40:09.933Z,0.95
2022-12-27T04:42:55.481Z,1.48
2022-12-27T04:45:41.104Z,1.27
2022-12-27T04:48:32.265Z,1.20
2022-12-27T04:51:18.522Z,1.52
2022-12-27T04:54:03.940Z,1.13
2022-12-27T04:56:30.578Z,1.15
2022-12-27T04:59:16.249Z,1.25
2022-12-27T05:02:01.971Z,1.17
2022-12-27T05:04:29.600Z,1.20
2022-12-27T05:06:57.162Z,1.08
2022-12-27T05:09:43.197Z,1.10
2022-12-27T05:12:29.702Z,1.35
2022-12-27T05:14:56.338Z,1.40
2022-12-27T05:17:23.008Z,1.23
2022-12-27T05:19:49.616Z,1.35
2022-12-27T05:22:35.080Z,1.35
2022-12-27T05:25:20.394Z,2.15
2022-12-27T05:27:47.063Z,1.10
2022-12-27T05:30:13.731Z,1.88
2022-12-27T05:32:40.389Z,2.05
2022-12-27T05:35:07.332Z,1.60
2022-12-27T05:37:34.015Z,1.70
2022-12-27T05:40:00.648Z,1.40
2022-12-27T05:42:27.297Z,1.08
2022-12-27T05:44:54.085Z,1.60
2022-12-27T05:47:20.714Z,1.30
2022-12-27T05:49:47.382Z,1.25
2022-12-27T05:52:14.094Z,1.10
2022-12-27T05:54:40.737Z,1.92
2022-12-27T05:57:07.410Z,1.05
2022-12-27T05:59:34.080Z,1.30
2022-12-27T06:02:01.624Z,1.10
2022-12-27T06:04:28.481Z,1.40
2022-12-27T06:06:55.200Z,1.25
2022-12-27T06:09:21.868Z,1.13
2022-12-27T06:11:48.490Z,1.70
2022-12-27T06:14:15.333Z,0.88
2022-12-27T06:16:42.219Z,0.77
2022-12-27T06:19:09.152Z,1.10
2022-12-27T06:21:35.924Z,2.03
2022-12-27T06:24:02.656Z,2.28
2022-12-27T06:26:30.434Z,1.00
2022-12-27T06:28:58.552Z,1.00
2022-12-27T06:31:26.446Z,1.60
2022-12-27T06:33:53.956Z,1.02
2022-12-27T06:36:23.606Z,1.33
2022-12-27T06:38:50.309Z,1.08
2022-12-27T06:41:18.470Z,1.27
2022-12-27T06:43:46.213Z,1.00
2022-12-27T06:46:17.802Z,1.05
2022-12-27T06:48:48.054Z,2.15
2022-12-27T06:51:16.674Z,1.33
2022-12-27T06:53:43.290Z,0.95
2022-12-27T06:56:18.659Z,1.10
2022-12-27T06:58:46.729Z,1.73
2022-12-27T07:01:19.903Z,1.55
2022-12-27T07:03:51.175Z,1.63
2022-12-27T07:06:19.024Z,3.40
2022-12-27T07:08:46.629Z,2.50
2022-12-27T07:11:14.440Z,3.17
2022-12-27T07:13:44.656Z,3.78
2022-12-27T07:16:17.783Z,7.45
2022-12-27T07:18:44.487Z,5.95
2022-12-27T07:21:13.952Z,5.05
2022-12-27T07:23:40.973Z,2.08
2022-12-27T07:26:10.381Z,1.85
2022-12-27T07:28:37.731Z,4.15
2022-12-27T07:31:09.075Z,4.93
2022-12-27T07:33:37.083Z,3.50
2022-12-27T07:36:07.809Z,2.97
2022-12-27T07:38:34.541Z,2.13
2022-12-27T07:41:01.989Z,2.70
2022-12-27T07:43:33.734Z,3.65
2022-12-27T07:46:09.225Z,3.42
2022-12-27T07:48:36.406Z,5.80
2022-12-27T07:51:03.483Z,3.13
2022-12-27T07:53:31.130Z,3.85
2022-12-27T07:55:58.220Z,3.47
2022-12-27T07:58:24.976Z,3.00
2022-12-27T08:00:52.357Z,2.55
2022-12-27T08:03:19.633Z,2.95
2022-12-27T08:05:49.431Z,3.42
2022-12-27T08:08:18.096Z,3.80
2022-12-27T08:10:44.770Z,4.85
2022-12-27T08:13:11.673Z,5.82
2022-12-27T08:15:42.401Z,4.28
2022-12-27T08:18:09.943Z,3.55
2022-12-27T08:20:36.782Z,4.03
2022-12-27T08:23:03.911Z,4.20
2022-12-27T08:25:30.591Z,5.25
2022-12-27T08:28:08.537Z,2.50
2022-12-27T08:30:35.224Z,1.38
2022-12-27T08:33:04.120Z,1.20
2022-12-27T08:35:52.383Z,7.47
2022-12-27T08:38:18.603Z,9.57
2022-12-27T08:40:46.405Z,5.10
2022-12-27T08:43:14.258Z,7.55
2022-12-27T08:45:41.017Z,5.40
2022-12-27T08:48:08.004Z,3.30
2022-12-27T08:50:34.983Z,2.63
2022-12-27T08:53:03.123Z,2.42
2022-12-27T08:55:30.673Z,1.63
2022-12-27T08:58:02.235Z,1.63
2022-12-27T09:00:29.691Z,1.45
2022-12-27T09:02:56.849Z,1.98
2022-12-27T09:05:24.915Z,2.08
2022-12-27T09:07:51.937Z,2.15
2022-12-27T09:10:19.485Z,1.20
2022-12-27T09:12:46.131Z,1.08
2022-12-27T09:15:12.837Z,1.67
2022-12-27T09:17:40.369Z,2.85
2022-12-27T09:20:08.235Z,1.17
2022-12-27T09:22:35.258Z,1.45
2022-12-27T09:25:02.006Z,2.00
2022-12-27T09:27:28.716Z,3.28
2022-12-27T09:29:55.408Z,2.78
2022-12-27T09:32:22.297Z,1.63
2022-12-27T09:34:48.947Z,2.25
2022-12-27T09:37:15.668Z,1.50
2022-12-27T09:39:42.342Z,1.83
2022-12-27T09:42:59.626Z,1.40
2022-12-27T09:45:39.788Z,1.00
2022-12-27T09:48:33.539Z,1.60
2022-12-27T09:51:12.578Z,1.17
2022-12-27T09:53:46.243Z,1.00
2022-12-27T09:56:40.566Z,1.10
2022-12-27T09:59:26.997Z,1.67
2022-12-27T10:01:53.893Z,1.42
2022-12-27T10:04:20.909Z,1.58
2022-12-27T10:06:50.474Z,1.40
2022-12-27T10:09:50.129Z,2.88
2022-12-27T10:12:35.112Z,1.30
2022-12-27T10:15:16.939Z,1.00
2022-12-27T10:18:17.809Z,3.67
2022-12-27T10:21:05.784Z,1.73
2022-12-27T10:23:34.696Z,0.98
2022-12-27T10:26:07.148Z,2.30
2022-12-27T10:28:43.950Z,1.70
2022-12-27T10:31:19.700Z,1.60
2022-12-27T10:33:48.830Z,1.73
2022-12-27T10:36:20.342Z,0.95
2022-12-27T10:38:47.226Z,1.80
2022-12-27T10:41:22.741Z,1.00
2022-12-27T10:43:54.523Z,0.82
2022-12-27T10:46:32.396Z,1.60
2022-12-27T10:49:22.652Z,1.23
2022-12-27T10:51:51.208Z,1.30
2022-12-27T10:54:27.680Z,1.30
2022-12-27T10:56:55.811Z,1.75
2022-12-27T10:59:28.176Z,1.40
2022-12-27T11:04:29.453Z,0.80
2022-12-27T11:07:02.157Z,0.85
2022-12-27T11:09:31.856Z,1.45
2022-12-27T11:12:13.957Z,1.17
2022-12-27T11:14:53.973Z,1.40
2022-12-27T11:17:36.929Z,1.52
2022-12-27T11:20:22.563Z,1.40
2022-12-27T11:23:12.298Z,1.30
2022-12-27T11:25:56.862Z,3.28
2022-12-27T11:28:32.348Z,3.22
2022-12-27T11:31:11.486Z,3.28
2022-12-27T11:33:47.269Z,1.23
2022-12-27T11:36:23.776Z,1.73
2022-12-27T11:38:51.283Z,2.38
2022-12-27T11:41:44.275Z,1.90
2022-12-27T11:44:32.065Z,1.52
2022-12-27T11:47:03.763Z,1.10
2022-12-27T11:49:41.743Z,1.90
2022-12-27T11:52:29.513Z,1.50
2022-12-27T11:55:27.183Z,1.52
2022-12-27T11:58:21.382Z,1.65
2022-12-27T12:01:05.684Z,3.22
2022-12-27T12:03:41.462Z,1.38
2022-12-27T12:06:35.767Z,7.45
2022-12-27T12:09:21.049Z,1.70
2022-12-27T12:12:09.685Z,2.90
2022-12-27T12:15:06.478Z,6.05
2022-12-27T12:17:46.494Z,1.30
2022-12-27T12:20:43.211Z,1.48
2022-12-27T12:23:27.997Z,1.80
2022-12-27T12:26:16.331Z,8.50
2022-12-27T12:28:59.669Z,6.55
2022-12-27T12:31:44.662Z,1.45
2022-12-27T12:34:24.314Z,1.20
2022-12-27T12:37:15.800Z,1.73
2022-12-27T12:39:57.948Z,4.50
2022-12-27T12:42:43.377Z,4.03
2022-12-27T12:45:34.770Z,2.60
2022-12-27T12:48:13.483Z,2.22
2022-12-27T12:50:50.665Z,1.52
2022-12-27T12:53:35.210Z,1.17
2022-12-27T12:56:34.427Z,2.67
2022-12-27T12:59:27.895Z,1.33
2022-12-27T13:02:12.643Z,0.95
2022-12-27T13:05:11.540Z,1.85
2022-12-27T13:07:53.363Z,1.70
2022-12-27T13:10:38.916Z,1.17
2022-12-27T13:13:05.983Z,1.50
2022-12-27T13:16:01.477Z,1.13
2022-12-27T13:18:49.698Z,1.27
2022-12-27T13:21:44.201Z,1.10
2022-12-27T13:24:35.904Z,1.30
2022-12-27T13:27:25.411Z,1.05
2022-12-27T13:30:03.018Z,1.10
2022-12-27T13:32:52.598Z,1.60
2022-12-27T13:35:28.204Z,1.38
2022-12-27T13:38:09.584Z,2.42
2022-12-27T13:40:57.825Z,1.45
2022-12-27T13:43:43.310Z,1.60
2022-12-27T13:46:42.705Z,1.10
2022-12-27T13:49:47.322Z,2.30
2022-12-27T13:52:51.328Z,2.00
2022-12-27T13:55:42.317Z,0.90
2022-12-27T13:58:47.599Z,1.10
2022-12-27T14:01:23.347Z,1.15
2022-12-27T14:04:20.525Z,2.22
2022-12-27T14:07:12.416Z,1.85
2022-12-27T14:09:39.066Z,2.23
2022-12-27T14:12:23.634Z,2.60
2022-12-27T14:14:51.217Z,1.60
2022-12-27T14:17:23.719Z,1.80
2022-12-27T14:20:02.526Z,2.30
2022-12-27T14:22:54.406Z,1.65
2022-12-27T14:25:58.944Z,1.63
2022-12-27T14:28:35.295Z,2.58
2022-12-27T14:31:20.139Z,2.40
2022-12-27T14:33:58.916Z,2.78
2022-12-27T14:36:44.520Z,5.22
2022-12-27T14:39:32.231Z,3.53
2022-12-27T14:42:14.966Z,4.95
2022-12-27T14:45:00.576Z,3.85
2022-12-27T14:47:36.751Z,5.15
2022-12-27T14:50:24.759Z,6.15
2022-12-27T14:53:00.579Z,5.60
2022-12-27T14:55:42.155Z,5.07
2022-12-27T14:58:52.886Z,9.53
2022-12-27T15:01:50.646Z,3.83
2022-12-27T15:04:35.596Z,3.83
2022-12-27T15:07:30.319Z,4.70
2022-12-27T15:10:18.350Z,3.90
2022-12-27T15:13:15.025Z,3.67
2022-12-27T15:16:13.201Z,3.08
2022-12-27T15:19:09.652Z,2.80
2022-12-27T15:21:45.347Z,2.60
2022-12-27T15:24:39.858Z,2.72
2022-12-27T15:27:30.920Z,10.70
2022-12-27T15:30:27.377Z,2.30
2022-12-27T15:33:13.577Z,1.52
2022-12-27T15:35:48.663Z,1.90
2022-12-27T15:38:35.311Z,1.80
2022-12-27T15:41:08.180Z,7.82
2022-12-27T15:43:46.697Z,13.25
2022-12-27T15:46:55.372Z,8.52
2022-12-27T15:49:27.775Z,4.63
2022-12-27T15:54:53.653Z,5.72
2022-12-27T15:57:52.681Z,3.97
2022-12-27T16:00:33.558Z,2.78
2022-12-27T16:03:35.939Z,2.58
2022-12-27T16:06:04.448Z,3.53
2022-12-27T16:08:33.085Z,6.05
2022-12-27T16:11:00.964Z,6.28
2022-12-27T16:13:41.748Z,7.05
2022-12-27T16:16:32.593Z,4.63
2022-12-27T16:19:20.782Z,4.43
2022-12-27T16:21:47.568Z,7.05
2022-12-27T16:24:21.917Z,9.13
2022-12-27T16:27:01.197Z,7.97
2022-12-27T16:29:32.826Z,5.07
2022-12-27T16:32:22.621Z,3.65
2022-12-27T16:34:57.952Z,3.70
2022-12-27T16:37:29.991Z,5.95
2022-12-27T16:40:10.124Z,7.07
2022-12-27T16:42:51.182Z,5.05
2022-12-27T16:45:53.217Z,6.50
2022-12-27T16:48:49.421Z,6.57
2022-12-27T16:51:31.213Z,5.07
2022-12-27T16:54:05.332Z,5.43
2022-12-27T16:56:44.753Z,4.32
2022-12-27T16:59:48.873Z,6.22
2022-12-27T17:02:39.938Z,6.75
2022-12-27T17:05:34.137Z,6.75
2022-12-27T17:08:00.967Z,5.70
2022-12-27T17:10:27.963Z,7.15
2022-12-27T17:13:16.769Z,7.30
2022-12-27T17:15:55.583Z,7.78
2022-12-27T17:18:33.083Z,9.75
2022-12-27T17:21:15.200Z,15.82
2022-12-27T17:23:45.861Z,14.30
2022-12-27T17:26:43.524Z,22.80
2022-12-27T17:29:44.541Z,10.00
2022-12-27T17:32:25.231Z,6.00
2022-12-27T17:35:27.236Z,7.32
2022-12-27T17:38:18.557Z,6.35
2022-12-27T17:40:57.664Z,6.97
2022-12-27T17:44:14.063Z,6.75
2022-12-27T17:47:02.145Z,4.68
2022-12-27T17:49:30.800Z,3.53
2022-12-27T17:52:22.297Z,3.60
2022-12-27T17:55:07.938Z,3.70
2022-12-27T17:57:53.401Z,5.15
2022-12-27T18:00:26.516Z,5.32
2022-12-27T18:02:55.514Z,5.75
2022-12-27T18:05:30.570Z,4.90
2022-12-27T18:08:06.194Z,5.00
2022-12-27T18:10:34.597Z,6.63
2022-12-27T18:13:04.558Z,6.93
2022-12-27T18:15:34.573Z,6.95
2022-12-27T18:18:08.316Z,6.72
2022-12-27T18:20:37.523Z,6.05
2022-12-27T18:23:04.140Z,3.90
2022-12-27T18:25:32.342Z,3.22
2022-12-27T18:28:00.996Z,2.50
2022-12-27T18:30:33.338Z,4.28
2022-12-27T18:35:27.598Z,2.90
2022-12-27T18:37:55.085Z,2.80
2022-12-27T18:40:24.189Z,3.97
2022-12-27T18:42:53.212Z,3.78
2022-12-27T18:45:24.372Z,3.85
2022-12-27T18:47:54.301Z,2.60
2022-12-27T18:50:24.645Z,2.92
2022-12-27T18:53:21.542Z,3.40
2022-12-27T18:56:00.572Z,3.40
2022-12-27T18:58:28.017Z,5.10
2022-12-27T19:01:25.814Z,6.93
2022-12-27T19:04:17.081Z,5.65
2022-12-27T19:07:06.857Z,3.90
2022-12-27T19:09:56.169Z,4.15
2022-12-27T19:12:36.762Z,5.07
2022-12-27T19:15:14.093Z,4.07
2022-12-27T19:17:44.557Z,4.88
2022-12-27T19:20:33.331Z,4.43
2022-12-27T19:23:04.454Z,4.68
2022-12-27T19:25:33.540Z,4.35
2022-12-27T19:28:12.059Z,4.32
2022-12-27T19:30:43.369Z,4.68
2022-12-27T19:33:15.269Z,3.78
2022-12-27T19:35:42.925Z,4.90
2022-12-27T19:38:21.364Z,4.90
2022-12-27T19:40:49.979Z,4.32
2022-12-27T19:43:17.537Z,4.35
2022-12-27T19:45:44.226Z,4.78
2022-12-27T19:48:11.398Z,4.13
2022-12-27T19:50:50.366Z,3.58
2022-12-27T19:53:20.819Z,3.90
2022-12-27T19:55:47.658Z,4.03
2022-12-27T19:58:24.571Z,3.53
2022-12-27T20:00:51.925Z,3.97
2022-12-27T20:03:18.706Z,3.38
2022-12-27T20:06:13.654Z,4.10
2022-12-27T20:08:53.907Z,4.93
2022-12-27T20:11:22.914Z,4.93
2022-12-27T20:13:49.789Z,6.13
2022-12-27T20:16:19.050Z,5.50
2022-12-27T20:18:46.245Z,4.70
2022-12-27T20:21:14.966Z,5.20
2022-12-27T20:23:41.954Z,4.00
2022-12-27T20:26:09.413Z,4.43
2022-12-27T20:28:36.272Z,4.38
2022-12-27T20:31:11.228Z,4.60
2022-12-27T20:33:38.266Z,5.13
2022-12-27T20:36:05.515Z,4.53
2022-12-27T20:38:32.582Z,5.22
2022-12-27T20:41:11.186Z,4.28
2022-12-27T20:43:38.175Z,4.35
2022-12-27T20:46:07.268Z,3.83
2022-12-27T20:48:37.762Z,4.65
2022-12-27T20:51:13.025Z,4.10
2022-12-27T20:53:39.730Z,3.45
2022-12-27T20:56:09.055Z,5.15
2022-12-27T20:58:35.995Z,4.57
2022-12-27T21:01:15.103Z,4.68
2022-12-27T21:03:42.947Z,4.30
2022-12-27T21:06:13.214Z,4.65
2022-12-27T21:08:46.554Z,4.85
2022-12-27T21:11:24.812Z,4.25
2022-12-27T21:13:51.617Z,4.22
2022-12-27T21:16:27.285Z,4.55
2022-12-27T21:18:55.085Z,5.05
2022-12-27T21:21:27.621Z,4.80
2022-12-27T21:23:55.416Z,5.78
2022-12-27T21:26:25.219Z,4.80
2022-12-27T21:28:52.377Z,4.13
2022-12-27T21:31:20.142Z,4.68
2022-12-27T21:33:47.494Z,5.13
2022-12-27T21:36:26.106Z,4.03
2022-12-27T21:38:54.401Z,3.42
2022-12-27T21:41:26.748Z,3.42
2022-12-27T21:46:32.705Z,3.22
2022-12-27T21:49:01.995Z,3.58
2022-12-27T21:51:30.553Z,3.80
2022-12-27T21:53:57.804Z,3.33
2022-12-27T21:56:25.226Z,3.72
2022-12-27T21:58:55.269Z,4.15
2022-12-27T22:01:30.053Z,3.35
2022-12-27T22:03:58.361Z,3.72
2022-12-27T22:06:29.745Z,3.47
2022-12-27T22:09:02.492Z,5.83
2022-12-27T22:11:30.636Z,7.13
2022-12-27T22:13:57.591Z,7.72
2022-12-27T22:16:28.544Z,7.60
2022-12-27T22:18:58.085Z,5.22
2022-12-27T22:21:28.079Z,3.67
2022-12-27T22:23:57.057Z,3.38
2022-12-27T22:26:30.160Z,3.63
2022-12-27T22:28:57.404Z,2.28
2022-12-27T22:31:30.093Z,3.28
2022-12-27T22:33:56.966Z,2.58
2022-12-27T22:36:25.669Z,2.10
2022-12-27T22:51:35.402Z,2.42
2022-12-27T22:54:03.755Z,2.50
2022-12-27T22:56:32.971Z,2.60
2022-12-27T22:59:00.388Z,2.60
2022-12-27T23:01:30.063Z,2.40
2022-12-27T23:03:58.467Z,2.47
2022-12-27T23:06:26.074Z,2.08
2022-12-27T23:08:52.849Z,2.22
2022-12-27T23:11:20.742Z,2.47
2022-12-27T23:13:48.638Z,2.95
2022-12-27T23:16:15.519Z,3.15
2022-12-27T23:18:42.320Z,2.08
2022-12-27T23:21:20.989Z,2.10
2022-12-27T23:23:51.328Z,1.98
2022-12-27T23:26:20.620Z,2.05
2022-12-27T23:28:47.979Z,2.45
2022-12-27T23:31:15.532Z,2.28
2022-12-27T23:33:43.514Z,2.40
2022-12-27T23:36:11.391Z,2.33
2022-12-27T23:38:38.415Z,3.08
2022-12-27T23:41:07.074Z,3.10
2022-12-27T23:43:53.710Z,3.42
2022-12-27T23:46:28.077Z,2.65
2022-12-27T23:48:55.976Z,2.38
2022-12-27T23:51:23.264Z,3.78
2022-12-27T23:53:50.333Z,2.92
2022-12-27T23:56:32.104Z,2.63
2022-12-27T23:59:00.975Z,3.17
